Flight Track Log - Related Links

Times and Time Zones

All times are in EDT time to prevent confusion due to time zone crossing. See the ASQ2552 flight status page for this flight to view local times or setup timezone preferences in your user account.

Time Position Orientation Groundspeed Altitude Reporting Facility
EDT Latitude Longitude Course Direction KTS MPH feet Rate Location/Type
Mon 07:44:34 PM 43.0700 -89.3689 204° Southwest 181 208 4,300  Level Chicago Center
Mon 07:45:37 PM 43.0083 -89.4075 205° Southwest 225 259 7,100 2,661 Climbing Chicago Center
Mon 07:46:38 PM 42.9358 -89.4525 204° Southwest 276 318 9,800 2,341 Climbing Chicago Center
Mon 07:47:40 PM 42.8403 -89.5111 204° Southwest 317 365 11,900 1,645 Climbing Chicago Center
Mon 07:48:42 PM 42.7461 -89.5700 205° Southwest 361 415 13,200 1,355 Climbing Chicago Center
Mon 07:49:00 PM 42.8174 -89.5196 204° Southwest  Level FlightAware Approximate
Mon 07:49:44 PM 42.6422 -89.6328 204° Southwest 402 463 14,700  Level Chicago Center
Mon 07:50:46 PM 42.5383 -89.6983 205° Southwest 410 472 16,200 1,452 Climbing Chicago Center
Mon 07:51:48 PM 42.4322 -89.7636 204° Southwest 418 481 17,700 1,548 Climbing Chicago Center
Mon 07:52:50 PM 42.3072 -89.8397 204° Southwest 422 486 19,400 1,548 Climbing Chicago Center
Mon 07:53:52 PM 42.2006 -89.9036 204° Southwest 419 482 20,900 1,258 Climbing Chicago Center
Mon 07:54:54 PM 42.1081 -89.9603 204° Southwest 419 482 22,000 1,113 Climbing Chicago Center
Mon 07:55:56 PM 41.9794 -90.0378 204° Southwest 422 486 23,200 1,065 Climbing Chicago Center
Mon 07:56:58 PM 41.8686 -90.1036 204° Southwest 432 497 24,200 919 Climbing Chicago Center
Mon 07:58:00 PM 41.7631 -90.1664 204° Southwest 438 504 25,100 919 Climbing Chicago Center
Mon 07:59:02 PM 41.6503 -90.2356 205° Southwest 445 512 26,100 968 Climbing Chicago Center
Mon 08:00:04 PM 41.5136 -90.3158 204° Southwest 448 516 27,100 823 Climbing Chicago Center
Mon 08:01:06 PM 41.3986 -90.3842 204° Southwest 451 519 27,800 435 Climbing Chicago Center
Mon 08:02:08 PM 41.2808 -90.4536 204° Southwest 463 533 28,000 97 Climbing Chicago Center
Mon 08:03:10 PM 41.1592 -90.5264 204° Southwest 477 549 28,000  Level Chicago Center
Mon 08:04:12 PM 41.0344 -90.5994 204° Southwest 487 560 28,000  Level Chicago Center
Mon 08:05:14 PM 40.8836 -90.6875 204° Southwest 495 570 28,000  Level Chicago Center
Mon 08:06:16 PM 40.7572 -90.7594 203° Southwest 498 573 28,000  Level Chicago Center
Mon 08:07:18 PM 40.6306 -90.8336 204° Southwest 501 577 28,000  Level Chicago Center
Mon 08:08:20 PM 40.5036 -90.9056 203° Southwest 499 574 28,000  Level Chicago Center
Mon 08:09:22 PM 40.3761 -90.9781 203° Southwest 501 577 28,000  Level Chicago Center
Mon 08:10:10 PM 40.2650 -91.0406 203° Southwest 499 574 28,000  Level Kansas City Center
Mon 08:11:12 PM 40.1378 -91.1136 204° Southwest 501 577 28,000  Level Kansas City Center
Mon 08:12:13 PM 40.0117 -91.1864 204° Southwest 499 574 28,000  Level Kansas City Center
Mon 08:13:15 PM 39.8836 -91.2581 203° Southwest 502 578 28,000  Level Kansas City Center
Mon 08:14:17 PM 39.7439 -91.3683 211° Southwest 491 565 28,000  Level Kansas City Center
Mon 08:15:19 PM 39.6300 -91.4656 213° Southwest 491 565 28,000  Level Kansas City Center
Mon 08:16:21 PM 39.5156 -91.5625 213° Southwest 492 566 28,000  Level Kansas City Center
Mon 08:17:22 PM 39.4047 -91.6561 213° Southwest 493 567 28,000  Level Kansas City Center
Mon 08:18:24 PM 39.2872 -91.7558 213° Southwest 492 566 28,000  Level Kansas City Center
Mon 08:19:26 PM 39.1722 -91.8528 213° Southwest 484 557 28,000  Level Kansas City Center
Mon 08:20:28 PM 39.0353 -91.9686 213° Southwest 490 564 28,000  Level Kansas City Center
Mon 08:21:30 PM 38.9211 -92.0636 213° Southwest 489 563 28,000  Level Kansas City Center
Mon 08:22:32 PM 38.8069 -92.1597 213° Southwest 490 564 28,000  Level Kansas City Center
Mon 08:23:34 PM 38.6931 -92.2525 212° Southwest 486 559 28,000  Level Kansas City Center
Mon 08:24:35 PM 38.5800 -92.3469 213° Southwest 485 558 28,000  Level Kansas City Center
Mon 08:25:37 PM 38.4653 -92.4375 212° Southwest 486 559 28,000  Level Kansas City Center
Mon 08:26:39 PM 38.3539 -92.5317 214° Southwest 482 555 28,000  Level Kansas City Center
Mon 08:27:41 PM 38.2183 -92.6408 212° Southwest 482 555 28,000  Level Kansas City Center
Mon 08:28:43 PM 38.1161 -92.7272 214° Southwest 484 557 28,000  Level Kansas City Center
Mon 08:29:45 PM 37.9944 -92.8228 212° Southwest 482 555 28,000  Level Kansas City Center
Mon 08:30:46 PM 37.8819 -92.9136 213° Southwest 482 555 28,000  Level Kansas City Center
Mon 08:31:48 PM 37.7686 -93.0033 212° Southwest 482 555 28,000  Level Kansas City Center
Mon 08:32:50 PM 37.6336 -93.1114 212° Southwest 481 554 28,000  Level Kansas City Center
Mon 08:33:52 PM 37.5206 -93.2019 212° Southwest 479 551 28,000  Level Kansas City Center
Mon 08:34:54 PM 37.4058 -93.2922 212° Southwest 482 555 28,000  Level Kansas City Center
Mon 08:35:56 PM 37.2919 -93.3808 212° Southwest 482 555 28,000  Level Kansas City Center
Mon 08:36:58 PM 37.1764 -93.4628 209° Southwest 479 551 28,000  Level Kansas City Center
Mon 08:37:59 PM 37.0586 -93.5456 209° Southwest 480 552 28,000  Level Kansas City Center
Mon 08:39:01 PM 36.9417 -93.6278 209° Southwest 481 554 28,000  Level Kansas City Center
Mon 08:40:03 PM 36.8053 -93.7239 209° Southwest 482 555 28,000  Level Kansas City Center
Mon 08:41:05 PM 36.6850 -93.8106 210° Southwest 479 551 28,000  Level Kansas City Center
Mon 08:42:07 PM 36.5675 -93.8925 209° Southwest 481 554 28,000  Level Kansas City Center
Mon 08:43:08 PM 36.4528 -93.9742 210° Southwest 476 548 28,000  Level Kansas City Center
Mon 08:44:10 PM 36.3344 -94.0533 208° Southwest 478 550 28,000  Level Kansas City Center
Mon 08:45:12 PM 36.2094 -94.1117 201° Southwest 476 548 28,000  Level Kansas City Center
Mon 08:46:14 PM 36.0850 -94.1708 201° Southwest 477 549 28,000  Level Kansas City Center
Mon 08:47:16 PM 35.9611 -94.2311 201° Southwest 476 548 28,000  Level Kansas City Center
Mon 08:48:18 PM 35.8356 -94.2911 201° Southwest 477 549 28,000  Level Kansas City Center
Mon 08:49:19 PM 35.7008 -94.3547 201° Southwest 480 552 28,000  Level Kansas City Center
Mon 08:50:20 PM 35.5564 -94.4247 202° Southwest 482 555 28,000  Level Memphis Center
Mon 08:51:20 PM 35.4314 -94.4850 201° Southwest 482 555 28,000  Level Memphis Center
Mon 08:52:58 PM 35.2264 -94.5825 201° Southwest 457 526 28,000  Level Fort Worth Center
Mon 08:53:58 PM 35.1025 -94.6400 201° Southwest 472 543 28,000  Level Fort Worth Center
Mon 08:54:58 PM 34.9764 -94.6972 200° South 477 549 28,000  Level Fort Worth Center
Mon 08:55:58 PM 34.8503 -94.7492 199° South 484 557 28,000  Level Fort Worth Center
Mon 08:56:58 PM 34.7167 -94.7433 178° South 473 544 28,000  Level Fort Worth Center
Mon 08:57:58 PM 34.5808 -94.7325 176° South 478 550 28,000 -50 Level Fort Worth Center
Mon 08:58:58 PM 34.4553 -94.7211 176° South 472 543 27,900 -700 Descending Fort Worth Center
Mon 08:59:58 PM 34.3342 -94.7125 177° South 452 520 26,600 -1,300 Descending Fort Worth Center
Mon 09:00:58 PM 34.2217 -94.7208 184° South 436 502 25,300 -1,300 Descending Fort Worth Center
Mon 09:01:58 PM 34.1533 -94.8411 236° Southwest 379 436 24,000 -650 Descending Fort Worth Center
Mon 09:02:58 PM 34.0975 -94.9706 243° Southwest 403 464 24,000  Level Fort Worth Center
Mon 09:03:58 PM 34.0436 -95.1025 244° Southwest 426 490 24,000  Level Fort Worth Center
Mon 09:04:58 PM 33.9811 -95.2319 240° Southwest 440 506 24,000  Level Fort Worth Center
Mon 09:05:58 PM 33.9186 -95.3586 239° Southwest 447 514 24,000  Level Fort Worth Center
Mon 09:06:58 PM 33.8539 -95.4850 238° Southwest 456 525 24,000  Level Fort Worth Center
Mon 09:07:58 PM 33.7911 -95.6139 240° Southwest 451 519 24,000 -250 Level Fort Worth Center
Mon 09:08:58 PM 33.7364 -95.7250 239° Southwest 445 512 23,500 -1,500 Descending Fort Worth Center
Mon 09:09:58 PM 33.6711 -95.8561 239° Southwest 440 506 21,000 -2,500 Descending Fort Worth Center
Mon 09:10:58 PM 33.6203 -95.9617 240° Southwest 420 483 18,500 -2,350 Descending Fort Worth Center
Mon 09:11:58 PM 33.5592 -96.0850 239° Southwest 406 467 16,300 -2,050 Descending Fort Worth Center
Mon 09:12:58 PM 33.5119 -96.1803 239° Southwest 393 452 14,400 -1,850 Descending Fort Worth Center
Mon 09:13:58 PM 33.4586 -96.2856 239° Southwest 354 407 12,600 -1,600 Descending Fort Worth Center
Mon 09:14:58 PM 33.4136 -96.3708 238° Southwest 341 392 11,200 -800 Descending Fort Worth Center
Mon 09:15:58 PM 33.3664 -96.4658 239° Southwest 320 368 11,000 -300 Descending Fort Worth Center
Mon 09:16:58 PM 33.3292 -96.5433 240° Southwest 310 357 10,600 -1,100 Descending Fort Worth Center
Mon 09:17:58 PM 33.2922 -96.6281 242° Southwest 304 350 8,800 -1,700 Descending Fort Worth Center
Mon 09:18:58 PM 33.2531 -96.7156 242° Southwest 285 328 7,200 -1,350 Descending Fort Worth Center
Mon 09:19:58 PM 33.2158 -96.7953 241° Southwest 280 322 6,100 -1,050 Descending Fort Worth Center
Mon 09:20:58 PM 33.1767 -96.8625 235° Southwest 268 308 5,100 -1,050 Descending Fort Worth Center
Mon 09:21:58 PM 33.1331 -96.9322 233° Southwest 262 302 4,000 -1,050 Descending Fort Worth Center
Mon 09:22:58 PM 33.1019 -96.9869 236° Southwest 251 289 3,000 -450 Descending Fort Worth Center
Mon 09:23:58 PM 33.0500 -97.0167 206° Southwest 171 197 3,100 -300 Climbing Dallas / Fort Worth TRACON
Mon 09:24:58 PM 33.0167 -97.0167 180° South 160 184 2,400 -650 Descending Dallas / Fort Worth TRACON
Mon 09:25:58 PM 32.9667 -97.0167 180° South 115 132 1,800 -650 Descending Dallas / Fort Worth TRACON
Mon 09:26:58 PM 32.9333 -97.0167 180° South 117 135 1,100 -700 Descending Dallas / Fort Worth TRACON
Mon 09:28:00 PM 32.8968 -97.0380 232° Southwest  Level Estimated
Mon 09:35:00 PM 32.8968 -97.0380 232° Southwest  Level Estimated

Login

Don't have an account? Register now (free) for customized features, flight alerts, and more!